Time;durP1;ratioP1;P1;durP2;ratioP2;P2;SDS_P1;SDS_P2;PMS_P1;PMS_P2;Temp;Humidity;BMP_temperature;BMP_pressure;BME280_temperature;BME280_humidity;BME280_pressure;Samples;Min_cycle;Max_cycle;Signal;HPM_P1;HPM_P2
2022/03/24 00:02:05;;;;;;;17.95;16.05;;;8.80;59.70;;;;;;6008258;23;20545;-82
2022/03/24 00:04:32;;;;;;;18.08;16.25;;;8.70;60.00;;;;;;6015140;23;20254;-84
2022/03/24 00:06:59;;;;;;;17.33;14.93;;;8.60;60.40;;;;;;6011283;23;20199;-83
2022/03/24 00:09:27;;;;;;;17.85;15.95;;;8.60;61.10;;;;;;6004799;23;20535;-82
2022/03/24 00:11:55;;;;;;;18.27;16.38;;;8.50;61.60;;;;;;6006461;23;20214;-81
2022/03/24 00:14:22;;;;;;;18.10;15.13;;;8.50;62.10;;;;;;5996764;23;20241;-81
2022/03/24 00:16:49;;;;;;;17.48;15.55;;;8.40;62.60;;;;;;6005126;23;20191;-81
2022/03/24 00:19:19;;;;;;;19.38;15.77;;;8.40;63.00;;;;;;6003516;23;20199;-81
2022/03/24 00:21:46;;;;;;;20.27;16.98;;;8.40;63.40;;;;;;6003413;23;20632;-81
2022/03/24 00:24:13;;;;;;;17.20;15.40;;;8.30;63.90;;;;;;6004662;23;20195;-81
2022/03/24 00:26:42;;;;;;;18.20;16.35;;;8.20;64.50;;;;;;6004352;23;20198;-81
2022/03/24 00:29:09;;;;;;;20.27;16.25;;;8.20;65.00;;;;;;6001163;23;20621;-81
2022/03/24 00:31:37;;;;;;;21.17;16.60;;;8.10;65.40;;;;;;6005852;23;20242;-82
2022/03/24 00:34:05;;;;;;;17.33;15.20;;;8.10;65.80;;;;;;6001945;23;20660;-80
2022/03/24 00:36:32;;;;;;;17.23;15.30;;;8.00;66.30;;;;;;6004730;23;20192;-81
2022/03/24 00:38:59;;;;;;;16.58;14.82;;;7.90;66.60;;;;;;6004615;23;20232;-81
2022/03/24 00:41:28;;;;;;;15.85;14.20;;;7.80;66.90;;;;;;5995835;23;20286;-81
2022/03/24 00:43:56;;;;;;;16.23;13.05;;;7.80;67.40;;;;;;6002584;23;20198;-81
2022/03/24 00:46:24;;;;;;;15.82;14.13;;;7.70;67.50;;;;;;5996950;23;20713;-81
2022/03/24 00:48:52;;;;;;;15.07;13.48;;;7.70;67.80;;;;;;6003545;23;20271;-81
2022/03/24 00:51:19;;;;;;;16.40;14.35;;;7.60;67.80;;;;;;6004426;23;20307;-82
2022/03/24 00:53:46;;;;;;;16.67;14.95;;;7.60;68.70;;;;;;6004568;23;20470;-81
2022/03/24 00:56:14;;;;;;;18.60;15.20;;;7.60;69.40;;;;;;5994793;23;20187;-82
2022/03/24 00:58:41;;;;;;;18.38;15.70;;;7.60;70.00;;;;;;6001053;23;20225;-81
2022/03/24 01:01:12;;;;;;;17.15;15.10;;;7.70;70.40;;;;;;5994020;23;20318;-80
2022/03/24 01:03:39;;;;;;;17.38;15.50;;;7.70;70.80;;;;;;5993091;23;20285;-81
2022/03/24 01:06:07;;;;;;;17.35;15.52;;;7.70;71.10;;;;;;5999249;23;20199;-81
2022/03/24 01:08:34;;;;;;;18.77;16.38;;;7.70;72.00;;;;;;6004112;23;20190;-81
2022/03/24 01:11:05;;;;;;;17.58;15.07;;;7.70;71.40;;;;;;6003753;23;20638;-81
2022/03/24 01:13:34;;;;;;;18.85;15.48;;;7.60;71.70;;;;;;6001812;23;20194;-81
2022/03/24 01:16:03;;;;;;;18.77;16.40;;;7.60;72.30;;;;;;6001182;23;20194;-81
2022/03/24 01:18:34;;;;;;;17.98;15.73;;;7.50;72.80;;;;;;6004298;23;20201;-81
2022/03/24 01:21:03;;;;;;;18.45;15.38;;;7.50;73.40;;;;;;6003831;23;20214;-81
2022/03/24 01:23:30;;;;;;;19.45;16.05;;;7.40;74.20;;;;;;6002742;23;20560;-82
2022/03/24 01:25:58;;;;;;;18.77;15.70;;;7.30;74.90;;;;;;6002985;23;20225;-81
2022/03/24 01:28:25;;;;;;;20.80;15.70;;;7.20;75.50;;;;;;6003787;23;20201;-81
2022/03/24 01:30:53;;;;;;;18.30;15.65;;;7.10;76.40;;;;;;6003625;23;20232;-82
2022/03/24 01:33:20;;;;;;;18.00;16.10;;;6.90;77.50;;;;;;6003592;23;20709;-81
2022/03/24 01:35:49;;;;;;;19.73;16.27;;;6.80;78.80;;;;;;6003305;23;20198;-81
2022/03/24 01:38:16;;;;;;;17.05;15.25;;;6.70;79.80;;;;;;6004582;23;20187;-81
2022/03/24 01:40:44;;;;;;;16.80;15.00;;;6.70;80.70;;;;;;6003027;23;20248;-82
2022/03/24 01:43:11;;;;;;;19.02;17.02;;;6.60;81.30;;;;;;6003491;23;20281;-82
2022/03/24 01:45:38;;;;;;;16.95;15.27;;;6.60;82.00;;;;;;5993286;23;20252;-82
2022/03/24 01:48:06;;;;;;;17.70;15.95;;;6.60;82.80;;;;;;6004868;23;20272;-81
2022/03/24 01:50:34;;;;;;;17.90;15.88;;;6.50;83.30;;;;;;6003589;23;20225;-81
2022/03/24 01:53:04;;;;;;;19.23;16.02;;;6.50;84.50;;;;;;6004121;23;20217;-81
2022/03/24 01:55:33;;;;;;;16.80;14.80;;;6.50;84.30;;;;;;6003993;23;20195;-81
2022/03/24 01:58:00;;;;;;;17.08;14.68;;;6.50;84.60;;;;;;6002486;23;20665;-81
2022/03/24 02:00:28;;;;;;;17.40;15.60;;;6.50;85.10;;;;;;6005523;23;20291;-81
2022/03/24 02:02:57;;;;;;;17.15;15.00;;;6.50;85.90;;;;;;6005198;23;20222;-81
2022/03/24 02:05:25;;;;;;;16.60;14.90;;;6.40;86.90;;;;;;6004903;23;20340;-81
2022/03/24 02:07:52;;;;;;;15.07;13.48;;;6.40;86.60;;;;;;5994641;23;20200;-81
2022/03/24 02:10:20;;;;;;;15.07;13.23;;;6.30;86.60;;;;;;5994740;23;20214;-81
2022/03/24 02:12:47;;;;;;;15.48;13.88;;;6.30;87.80;;;;;;6003386;23;20646;-81
2022/03/24 02:15:15;;;;;;;18.90;15.90;;;6.20;88.10;;;;;;6003559;23;20749;-81
2022/03/24 02:17:42;;;;;;;18.95;15.18;;;6.20;89.00;;;;;;6004318;23;20213;-81
2022/03/24 02:20:10;;;;;;;16.17;14.48;;;6.10;89.80;;;;;;6005620;23;20182;-81
2022/03/24 02:22:38;;;;;;;17.58;15.70;;;6.10;90.10;;;;;;6002907;23;20194;-81
2022/03/24 02:25:09;;;;;;;15.73;14.10;;;6.10;90.30;;;;;;6005624;23;20190;-82
2022/03/24 02:27:36;;;;;;;16.70;14.82;;;6.10;90.60;;;;;;6002571;23;20186;-81
2022/03/24 02:30:04;;;;;;;16.45;14.75;;;6.10;90.80;;;;;;6003677;23;20201;-81
2022/03/24 02:32:31;;;;;;;17.90;14.63;;;6.00;91.00;;;;;;6004874;23;20194;-80
2022/03/24 02:34:59;;;;;;;18.15;14.50;;;6.00;91.30;;;;;;6001679;23;20214;-81
2022/03/24 02:37:28;;;;;;;16.02;14.18;;;6.00;91.50;;;;;;6000899;23;20198;-81
2022/03/24 02:39:58;;;;;;;15.38;13.63;;;5.90;91.70;;;;;;5995057;23;20198;-81
2022/03/24 02:42:27;;;;;;;16.80;15.00;;;5.80;92.00;;;;;;6002415;23;20374;-81
2022/03/24 02:44:55;;;;;;;20.42;15.05;;;5.70;92.50;;;;;;6005429;23;20554;-81
2022/03/24 02:47:23;;;;;;;17.65;14.73;;;5.60;93.00;;;;;;6002337;23;20740;-81
2022/03/24 02:49:52;;;;;;;16.88;14.23;;;5.50;93.70;;;;;;5999802;23;20569;-81
2022/03/24 02:52:19;;;;;;;16.55;14.80;;;5.50;94.30;;;;;;6003922;23;20329;-82
2022/03/24 02:54:46;;;;;;;16.73;15.00;;;5.40;94.90;;;;;;6003460;23;20202;-82
2022/03/24 02:57:15;;;;;;;18.55;13.93;;;5.30;95.50;;;;;;6003104;23;20198;-81
2022/03/24 02:59:43;;;;;;;16.27;14.43;;;5.30;96.00;;;;;;6013780;23;20228;-81
2022/03/24 03:02:13;;;;;;;15.93;14.05;;;5.30;96.50;;;;;;5994883;23;20248;-82
2022/03/24 03:04:41;;;;;;;17.90;15.45;;;5.30;96.80;;;;;;5998844;23;20798;-81
2022/03/24 03:07:09;;;;;;;16.42;14.65;;;5.30;97.20;;;;;;6002489;23;20190;-82
2022/03/24 03:09:37;;;;;;;16.60;14.77;;;5.30;97.40;;;;;;6005652;23;20541;-82
2022/03/24 03:12:06;;;;;;;18.17;15.98;;;5.30;97.60;;;;;;6004183;23;20626;-81
2022/03/24 03:14:34;;;;;;;16.80;15.00;;;5.30;97.90;;;;;;6003810;23;20198;-81
2022/03/24 03:17:01;;;;;;;17.35;15.55;;;5.30;98.20;;;;;;5997347;23;20220;-82
2022/03/24 03:19:29;;;;;;;18.67;15.27;;;5.30;98.40;;;;;;6003330;23;20754;-81
2022/03/24 03:21:57;;;;;;;16.45;14.70;;;5.30;98.70;;;;;;6003410;23;20226;-81
2022/03/24 03:24:24;;;;;;;16.80;15.10;;;5.20;98.80;;;;;;6004975;23;20227;-81
2022/03/24 03:26:53;;;;;;;20.25;15.48;;;5.20;98.90;;;;;;6003538;23;20225;-81
2022/03/24 03:29:22;;;;;;;18.35;15.70;;;5.10;99.00;;;;;;6004526;23;20253;-81
2022/03/24 03:31:52;;;;;;;17.63;15.73;;;5.10;99.10;;;;;;5994346;23;20246;-81
2022/03/24 03:34:19;;;;;;;16.33;14.65;;;5.10;99.30;;;;;;6003793;23;20660;-81
2022/03/24 03:36:47;;;;;;;16.63;14.73;;;5.00;99.30;;;;;;5997299;23;20204;-81
2022/03/24 03:39:14;;;;;;;17.00;15.10;;;5.00;99.40;;;;;;6003155;23;20197;-80
2022/03/24 03:41:41;;;;;;;17.13;15.32;;;5.00;99.60;;;;;;6004521;23;20217;-81
2022/03/24 03:44:08;;;;;;;18.00;16.00;;;5.00;99.90;;;;;;6003446;23;20237;-81
2022/03/24 03:46:36;;;;;;;19.40;15.48;;;5.00;99.90;;;;;;5998768;23;20190;-82
2022/03/24 03:49:07;;;;;;;16.10;14.40;;;5.00;99.90;;;;;;5997208;23;20666;-82
2022/03/24 03:51:35;;;;;;;18.77;16.00;;;4.90;99.90;;;;;;5997891;23;20250;-82
2022/03/24 03:54:03;;;;;;;18.15;16.27;;;4.90;99.90;;;;;;6005380;23;20190;-82
2022/03/24 03:56:30;;;;;;;18.85;15.73;;;4.90;99.90;;;;;;6001656;23;20191;-82
2022/03/24 03:58:57;;;;;;;16.98;14.93;;;4.90;99.90;;;;;;6001454;23;20222;-82
2022/03/24 04:01:24;;;;;;;16.80;15.00;;;4.90;99.90;;;;;;6003075;23;20244;-81
2022/03/24 04:03:51;;;;;;;19.38;15.00;;;4.90;99.90;;;;;;6004893;23;20218;-81
2022/03/24 04:06:19;;;;;;;18.67;16.13;;;4.80;99.90;;;;;;6003405;23;20299;-80
2022/03/24 04:08:46;;;;;;;21.27;17.00;;;4.80;99.90;;;;;;6003635;23;20274;-80
2022/03/24 04:11:14;;;;;;;18.30;16.17;;;4.80;99.90;;;;;;6004197;23;20222;-80
2022/03/24 04:13:43;;;;;;;18.50;16.15;;;4.70;99.90;;;;;;6004892;23;20182;-81
2022/03/24 04:16:12;;;;;;;18.05;15.65;;;4.70;99.90;;;;;;6003579;23;20206;-81
2022/03/24 04:18:40;;;;;;;19.80;17.45;;;4.70;99.90;;;;;;6001509;23;20284;-81
2022/03/24 04:21:07;;;;;;;20.40;16.90;;;4.60;99.90;;;;;;6003671;23;20296;-81
2022/03/24 04:23:37;;;;;;;18.88;17.08;;;4.60;99.90;;;;;;6003403;23;20268;-81
2022/03/24 04:26:04;;;;;;;19.98;15.95;;;4.50;99.90;;;;;;6004471;23;20198;-80
2022/03/24 04:28:31;;;;;;;18.25;16.15;;;4.50;99.90;;;;;;6000534;23;20209;-81
2022/03/24 04:30:58;;;;;;;18.55;16.02;;;4.40;99.90;;;;;;5997339;23;20299;-81
2022/03/24 04:33:25;;;;;;;17.15;15.30;;;4.40;99.90;;;;;;6003072;23;20256;-80
2022/03/24 04:35:53;;;;;;;18.52;16.50;;;4.30;99.90;;;;;;6005006;23;20190;-81
2022/03/24 04:38:22;;;;;;;17.77;15.88;;;4.30;99.90;;;;;;6004261;23;20203;-81
2022/03/24 04:40:50;;;;;;;19.77;17.67;;;4.20;99.90;;;;;;5997021;23;20261;-80
2022/03/24 04:43:17;;;;;;;19.23;16.15;;;4.20;99.90;;;;;;6004408;23;20537;-80
2022/03/24 04:45:44;;;;;;;20.55;15.60;;;4.20;99.90;;;;;;5984605;23;20604;-81
2022/03/24 04:48:11;;;;;;;17.08;15.35;;;4.10;99.90;;;;;;5996639;23;20220;-79
2022/03/24 04:50:39;;;;;;;18.10;15.70;;;4.10;99.90;;;;;;5997895;23;20213;-79
2022/03/24 04:53:06;;;;;;;19.80;16.88;;;4.00;99.90;;;;;;5997108;23;20269;-79
2022/03/24 04:55:33;;;;;;;17.92;15.80;;;4.00;99.90;;;;;;6003141;23;20218;-79
2022/03/24 04:58:03;;;;;;;17.45;15.20;;;4.00;99.90;;;;;;6000403;23;20198;-79
2022/03/24 05:00:30;;;;;;;17.90;15.10;;;4.00;99.90;;;;;;5996977;23;20217;-78
2022/03/24 05:02:57;;;;;;;19.20;17.20;;;4.00;99.90;;;;;;6001593;23;20222;-79
2022/03/24 05:05:23;;;;;;;20.33;17.33;;;3.90;99.90;;;;;;5996817;23;20232;-79
2022/03/24 05:07:50;;;;;;;18.15;16.10;;;3.90;99.90;;;;;;5998522;23;20186;-79
2022/03/24 05:10:17;;;;;;;20.08;16.27;;;3.90;99.90;;;;;;6000330;23;20560;-81
2022/03/24 05:12:44;;;;;;;21.13;16.10;;;3.90;99.90;;;;;;5994599;23;20223;-79
2022/03/24 05:15:14;;;;;;;20.70;17.20;;;3.90;99.90;;;;;;5996495;23;20194;-79
2022/03/24 05:17:41;;;;;;;17.83;16.02;;;3.90;99.90;;;;;;5996725;23;20293;-78
2022/03/24 05:20:09;;;;;;;18.75;16.80;;;3.90;99.90;;;;;;5992501;23;20206;-77
2022/03/24 05:22:37;;;;;;;17.10;15.15;;;3.90;99.90;;;;;;5999800;23;20191;-78
2022/03/24 05:25:05;;;;;;;18.88;16.35;;;3.90;99.90;;;;;;5991744;23;20280;-79
2022/03/24 05:27:32;;;;;;;18.90;16.90;;;3.90;99.90;;;;;;6001010;23;20202;-78
2022/03/24 05:29:59;;;;;;;20.23;16.38;;;3.90;99.90;;;;;;5995391;23;20293;-79
2022/03/24 05:32:28;;;;;;;16.45;14.70;;;3.90;99.90;;;;;;5995440;23;20218;-78
2022/03/24 05:34:55;;;;;;;19.38;16.35;;;4.00;99.90;;;;;;5988266;23;20189;-78
2022/03/24 05:37:22;;;;;;;20.80;16.13;;;4.00;99.90;;;;;;5988426;23;20189;-78
2022/03/24 05:39:50;;;;;;;19.38;16.65;;;4.00;99.90;;;;;;5994118;23;21485;-77
2022/03/24 05:42:17;;;;;;;17.90;15.32;;;4.00;99.90;;;;;;6000165;23;20650;-77
2022/03/24 05:44:44;;;;;;;16.98;15.15;;;4.10;99.90;;;;;;5993372;23;20190;-77
2022/03/24 05:47:11;;;;;;;17.08;15.18;;;4.10;99.90;;;;;;5999962;23;20190;-80
2022/03/24 05:49:39;;;;;;;20.55;16.58;;;4.10;99.90;;;;;;5993751;23;20209;-78
2022/03/24 05:52:07;;;;;;;19.48;15.48;;;4.10;99.90;;;;;;6000782;23;20243;-78
2022/03/24 05:54:34;;;;;;;18.63;16.73;;;4.10;99.90;;;;;;6000660;23;20190;-78
2022/03/24 05:57:03;;;;;;;19.08;15.45;;;4.20;99.90;;;;;;6000467;23;20615;-78
2022/03/24 05:59:29;;;;;;;18.20;16.30;;;4.20;99.90;;;;;;5999058;23;20320;-78
2022/03/24 06:01:57;;;;;;;17.63;15.50;;;4.20;99.90;;;;;;5999142;23;20204;-79
2022/03/24 06:04:25;;;;;;;18.25;16.35;;;4.20;99.90;;;;;;5986065;23;20186;-78
2022/03/24 06:06:56;;;;;;;18.42;15.82;;;4.30;99.90;;;;;;5993658;23;20189;-79
2022/03/24 06:09:24;;;;;;;17.20;15.35;;;4.40;99.90;;;;;;5998233;23;20658;-78
2022/03/24 06:11:52;;;;;;;19.02;16.73;;;4.50;99.90;;;;;;5986765;23;20218;-78
2022/03/24 06:14:20;;;;;;;21.25;17.52;;;4.60;99.90;;;;;;6001530;23;20183;-79
2022/03/24 06:16:48;;;;;;;18.23;16.25;;;4.60;99.90;;;;;;5998625;23;20273;-79
2022/03/24 06:19:16;;;;;;;17.27;15.50;;;4.80;99.90;;;;;;5995630;23;20609;-78
2022/03/24 06:21:43;;;;;;;20.08;15.75;;;4.90;99.90;;;;;;5993154;23;20688;-78
2022/03/24 06:24:12;;;;;;;17.92;16.02;;;5.20;99.90;;;;;;5988862;23;20191;-79
2022/03/24 06:26:39;;;;;;;16.90;15.10;;;5.50;99.90;;;;;;5999931;23;20598;-78
2022/03/24 06:29:10;;;;;;;19.10;15.10;;;5.80;99.90;;;;;;5998437;23;20749;-78
2022/03/24 06:31:38;;;;;;;18.77;15.68;;;6.10;99.90;;;;;;5996372;23;20317;-78
2022/03/24 06:34:05;;;;;;;19.45;16.80;;;6.30;99.90;;;;;;6000568;23;20198;-79
2022/03/24 06:36:32;;;;;;;20.67;16.20;;;6.50;99.90;;;;;;6004500;23;20209;-79
2022/03/24 06:39:00;;;;;;;18.38;16.20;;;6.70;99.50;;;;;;6001425;23;20519;-79
2022/03/24 06:41:28;;;;;;;17.05;15.18;;;7.00;99.10;;;;;;6002682;23;20205;-79
2022/03/24 06:43:59;;;;;;;17.00;15.20;;;7.30;98.40;;;;;;5992717;23;20942;-79
2022/03/24 06:46:27;;;;;;;17.27;15.45;;;7.70;97.20;;;;;;5990429;23;20281;-79
2022/03/24 06:48:54;;;;;;;16.33;14.73;;;8.10;96.30;;;;;;6002408;23;20692;-79
2022/03/24 06:51:22;;;;;;;16.98;15.23;;;8.20;95.60;;;;;;5995415;23;20214;-79
2022/03/24 06:53:49;;;;;;;17.63;15.82;;;8.40;94.80;;;;;;5992074;23;20642;-79
2022/03/24 06:56:16;;;;;;;18.08;16.17;;;8.60;94.40;;;;;;6003125;23;20190;-79
2022/03/24 06:58:44;;;;;;;18.58;16.33;;;8.70;93.80;;;;;;6002388;23;20193;-79
2022/03/24 07:01:11;;;;;;;17.70;15.80;;;8.90;93.60;;;;;;6002658;23;20673;-79
2022/03/24 07:03:38;;;;;;;17.83;16.02;;;9.00;93.10;;;;;;5998754;23;20542;-78
2022/03/24 07:06:06;;;;;;;18.10;15.90;;;9.20;92.60;;;;;;6004658;23;20225;-79
2022/03/24 07:08:34;;;;;;;18.05;15.70;;;9.60;92.20;;;;;;5997105;23;20189;-79
2022/03/24 07:11:01;;;;;;;17.58;15.88;;;9.90;91.40;;;;;;6000855;23;20207;-78
2022/03/24 07:13:28;;;;;;;18.50;16.27;;;10.10;90.60;;;;;;6001493;23;20572;-79
2022/03/24 07:15:56;;;;;;;20.58;16.42;;;10.30;89.70;;;;;;6002692;23;20262;-77
2022/03/24 07:18:23;;;;;;;19.73;17.73;;;10.50;88.90;;;;;;5998317;23;20655;-77
2022/03/24 07:20:51;;;;;;;18.65;16.75;;;10.70;88.00;;;;;;5995994;23;20212;-77
2022/03/24 07:23:19;;;;;;;20.08;17.88;;;10.80;86.80;;;;;;5984947;23;20195;-79
2022/03/24 07:25:46;;;;;;;19.88;15.00;;;10.90;86.50;;;;;;5990342;23;20588;-80
2022/03/24 07:28:12;;;;;;;18.02;16.05;;;11.20;84.80;;;;;;5993527;23;20626;-79
2022/03/24 07:30:40;;;;;;;19.27;17.27;;;11.20;85.20;;;;;;6000238;23;20598;-77
2022/03/24 07:33:09;;;;;;;19.05;17.15;;;11.60;83.80;;;;;;5999169;23;20237;-79
2022/03/24 07:35:37;;;;;;;19.65;17.67;;;12.20;82.50;;;;;;5998489;23;20260;-77
2022/03/24 07:38:04;;;;;;;19.52;17.67;;;12.90;79.90;;;;;;6000723;23;20201;-77
2022/03/24 07:40:31;;;;;;;19.83;17.73;;;13.40;77.20;;;;;;5996356;23;20264;-79
2022/03/24 07:42:58;;;;;;;19.67;17.77;;;13.50;75.60;;;;;;5997568;23;20187;-77
2022/03/24 07:45:26;;;;;;;21.75;18.67;;;13.60;75.10;;;;;;5997596;23;20190;-77
2022/03/24 07:48:15;;;;;;;20.45;17.92;;;13.70;73.20;;;;;;5988123;23;20722;-77
2022/03/24 07:50:44;;;;;;;21.65;18.40;;;13.70;71.90;;;;;;5990203;23;20206;-77
2022/03/24 07:53:34;;;;;;;20.40;18.40;;;14.10;71.90;;;;;;5999582;23;20210;-77
2022/03/24 07:56:02;;;;;;;19.03;17.03;;;14.50;71.40;;;;;;5998714;23;20446;-77
2022/03/24 07:58:29;;;;;;;18.80;16.90;;;15.00;69.10;;;;;;6001699;23;20462;-77
2022/03/24 08:00:57;;;;;;;19.47;17.57;;;15.30;67.50;;;;;;5996431;23;20478;-78
2022/03/24 08:03:27;;;;;;;18.97;16.60;;;15.60;67.10;;;;;;5993051;23;20442;-77
2022/03/24 08:05:54;;;;;;;19.60;17.60;;;15.60;67.30;;;;;;5998224;23;20474;-77
2022/03/24 08:08:21;;;;;;;23.20;19.60;;;15.90;66.20;;;;;;5997643;23;20457;-77
2022/03/24 08:10:49;;;;;;;20.80;18.70;;;16.00;65.80;;;;;;6002895;23;20461;-77
2022/03/24 08:13:18;;;;;;;21.10;17.90;;;16.50;64.30;;;;;;5996039;23;20471;-77
2022/03/24 08:15:45;;;;;;;21.10;19.00;;;16.80;62.30;;;;;;5998859;23;20441;-78
2022/03/24 08:18:14;;;;;;;20.27;18.37;;;17.30;61.60;;;;;;6000104;23;20476;-78
2022/03/24 08:20:44;;;;;;;21.10;18.43;;;17.80;60.50;;;;;;5992184;23;20465;-80
2022/03/24 08:23:13;;;;;;;21.90;19.70;;;18.30;57.70;;;;;;5992601;23;20571;-78
2022/03/24 08:25:42;;;;;;;19.90;18.00;;;18.40;57.10;;;;;;5999387;23;20468;-78
2022/03/24 08:28:10;;;;;;;21.33;19.27;;;18.70;55.90;;;;;;5999688;23;20495;-78
2022/03/24 08:30:37;;;;;;;22.13;19.47;;;19.00;56.00;;;;;;6000940;23;20531;-79
2022/03/24 08:33:05;;;;;;;20.53;18.43;;;19.60;55.20;;;;;;6000726;23;21054;-78
2022/03/24 08:35:32;;;;;;;21.63;19.50;;;20.30;53.60;;;;;;5996807;23;20437;-78
2022/03/24 08:38:00;;;;;;;20.93;18.83;;;20.60;52.80;;;;;;5996553;23;20437;-78
2022/03/24 08:40:27;;;;;;;20.70;18.60;;;20.60;51.90;;;;;;6000923;23;20536;-78
2022/03/24 08:42:54;;;;;;;19.63;17.80;;;20.60;51.80;;;;;;6000991;23;20820;-78
2022/03/24 08:45:21;;;;;;;22.17;19.90;;;20.80;51.10;;;;;;6001483;23;21019;-78
2022/03/24 08:47:48;;;;;;;20.70;18.90;;;21.00;50.40;;;;;;5991570;23;20944;-78
2022/03/24 08:50:16;;;;;;;21.83;19.87;;;21.20;50.20;;;;;;5996952;23;20996;-79
2022/03/24 08:52:45;;;;;;;23.77;21.57;;;21.20;49.80;;;;;;5988544;23;20484;-78
2022/03/24 08:55:14;;;;;;;22.00;19.90;;;21.10;48.90;;;;;;5999540;23;20445;-78
2022/03/24 08:57:42;;;;;;;22.83;20.57;;;21.40;49.20;;;;;;6000624;23;20953;-78
2022/03/24 09:00:13;;;;;;;21.93;19.90;;;21.40;48.40;;;;;;6000989;23;20469;-79
2022/03/24 09:02:41;;;;;;;23.27;21.07;;;21.30;48.00;;;;;;6001345;23;20452;-79
2022/03/24 09:05:09;;;;;;;22.43;20.43;;;21.40;48.40;;;;;;5999732;23;20443;-79
2022/03/24 09:07:36;;;;;;;21.87;19.73;;;21.80;47.40;;;;;;5999578;23;20456;-78
2022/03/24 09:10:06;;;;;;;24.53;21.80;;;22.60;46.60;;;;;;5998279;23;20461;-79
2022/03/24 09:12:37;;;;;;;23.97;21.73;;;23.30;45.60;;;;;;5986860;23;20457;-78
2022/03/24 09:15:07;;;;;;;22.13;20.23;;;23.70;45.30;;;;;;6001304;23;20441;-79
2022/03/24 09:17:35;;;;;;;24.23;22.00;;;24.30;43.80;;;;;;5999653;23;20441;-78
2022/03/24 09:20:02;;;;;;;22.73;20.73;;;24.40;43.30;;;;;;6003321;23;20467;-79
2022/03/24 09:22:30;;;;;;;23.23;21.20;;;24.90;42.90;;;;;;5997631;23;20499;-78
2022/03/24 09:24:57;;;;;;;24.13;21.97;;;25.10;43.10;;;;;;5993873;23;20508;-79
2022/03/24 09:27:25;;;;;;;23.90;21.80;;;25.80;42.10;;;;;;5997806;23;20446;-79
2022/03/24 09:29:53;;;;;;;24.10;21.67;;;26.00;40.80;;;;;;6002292;23;20523;-78
2022/03/24 09:32:20;;;;;;;23.17;21.27;;;26.00;40.90;;;;;;6002892;23;20452;-79
2022/03/24 09:34:47;;;;;;;23.00;21.10;;;26.20;41.20;;;;;;6002535;23;20441;-80
2022/03/24 09:37:17;;;;;;;23.90;21.90;;;26.70;40.40;;;;;;6001394;23;20449;-80
2022/03/24 09:39:45;;;;;;;23.33;21.33;;;27.10;39.20;;;;;;6003955;23;20556;-78
2022/03/24 09:42:12;;;;;;;24.87;22.80;;;27.80;37.70;;;;;;6001854;23;20964;-79
2022/03/24 09:44:41;;;;;;;24.17;22.17;;;27.60;36.60;;;;;;5992851;23;20998;-80
2022/03/24 09:47:11;;;;;;;24.50;22.30;;;27.50;35.60;;;;;;5999659;23;20529;-78
2022/03/24 09:49:39;;;;;;;22.20;20.30;;;27.40;35.50;;;;;;5998153;23;20464;-78
2022/03/24 09:52:06;;;;;;;24.87;22.80;;;27.10;36.20;;;;;;5990013;23;20440;-79
2022/03/24 09:54:33;;;;;;;24.87;22.47;;;27.00;36.20;;;;;;5992054;23;22004;-78
2022/03/24 09:57:05;;;;;;;23.30;21.03;;;27.10;36.00;;;;;;5996427;23;20834;-79
2022/03/24 09:59:32;;;;;;;21.83;19.77;;;27.40;34.70;;;;;;5994442;23;20577;-78
2022/03/24 10:02:01;;;;;;;23.60;21.40;;;27.50;34.60;;;;;;5994452;23;20503;-80
2022/03/24 10:04:45;;;;;;;22.87;20.90;;;27.40;34.10;;;;;;5996745;23;20458;-80
2022/03/24 10:07:12;;;;;;;20.70;19.10;;;27.40;34.20;;;;;;5996567;23;20463;-80
2022/03/24 10:09:40;;;;;;;21.57;19.70;;;27.60;32.60;;;;;;6001861;23;20479;-80
2022/03/24 10:12:08;;;;;;;22.40;20.50;;;27.90;32.40;;;;;;5998510;23;20452;-80
2022/03/24 10:14:36;;;;;;;21.17;19.47;;;28.30;32.10;;;;;;5999893;23;20988;-80
2022/03/24 10:17:08;;;;;;;22.13;20.00;;;28.50;32.20;;;;;;6002861;23;20457;-82
2022/03/24 10:19:37;;;;;;;20.97;19.20;;;27.80;31.00;;;;;;5997842;23;20500;-80
2022/03/24 10:22:09;;;;;;;20.90;19.10;;;27.80;32.00;;;;;;5997104;23;20445;-80
2022/03/24 10:24:41;;;;;;;20.87;19.07;;;28.10;32.10;;;;;;6003744;23;20484;-80
2022/03/24 10:27:08;;;;;;;21.67;19.73;;;28.60;30.40;;;;;;5998619;23;20551;-80
2022/03/24 10:29:36;;;;;;;21.50;19.60;;;28.50;30.10;;;;;;6004264;23;20508;-80
2022/03/24 10:32:05;;;;;;;20.93;19.27;;;28.40;31.00;;;;;;6001251;23;20451;-80
2022/03/24 10:34:34;;;;;;;20.77;18.97;;;28.50;30.70;;;;;;6001077;23;20471;-80
2022/03/24 10:37:07;;;;;;;20.73;18.80;;;28.40;30.40;;;;;;6000153;23;20465;-80
2022/03/24 10:39:35;;;;;;;20.73;19.13;;;29.00;29.80;;;;;;5999773;23;20532;-80
2022/03/24 10:42:16;;;;;;;19.30;17.80;;;29.20;29.30;;;;;;6002093;23;20455;-80
2022/03/24 10:45:07;;;;;;;20.03;18.43;;;28.90;29.80;;;;;;6003705;23;20782;-80
2022/03/24 10:47:39;;;;;;;23.30;21.30;;;29.20;29.80;;;;;;5997553;23;20484;-80
2022/03/24 10:50:37;;;;;;;21.60;19.80;;;28.80;29.80;;;;;;5998436;23;20465;-80
2022/03/24 10:53:07;;;;;;;21.40;19.70;;;28.70;30.30;;;;;;5998195;23;20566;-80
2022/03/24 10:55:46;;;;;;;22.27;20.40;;;29.20;30.20;;;;;;6000795;23;20998;-80
2022/03/24 10:58:20;;;;;;;20.17;18.27;;;29.60;30.10;;;;;;6001621;23;20524;-80
2022/03/24 11:00:49;;;;;;;22.93;20.93;;;29.70;30.30;;;;;;6002421;23;20444;-80
2022/03/24 11:03:17;;;;;;;20.90;19.00;;;29.80;29.80;;;;;;6001596;23;20446;-81
2022/03/24 11:05:44;;;;;;;20.43;18.60;;;29.80;30.00;;;;;;6000578;23;20437;-80
2022/03/24 11:08:16;;;;;;;20.80;18.80;;;30.20;29.90;;;;;;6000484;23;21043;-80
2022/03/24 11:10:48;;;;;;;18.10;16.70;;;30.00;28.80;;;;;;6001530;23;20452;-80
2022/03/24 11:13:24;;;;;;;18.90;17.43;;;29.50;29.00;;;;;;6000856;23;20479;-80
2022/03/24 11:15:53;;;;;;;20.27;18.37;;;29.10;29.30;;;;;;6002593;23;20528;-80
2022/03/24 11:18:22;;;;;;;18.37;16.77;;;29.00;29.40;;;;;;6003474;23;20523;-81
2022/03/24 11:20:50;;;;;;;18.43;16.77;;;29.20;29.20;;;;;;6001066;23;20569;-80
2022/03/24 11:23:39;;;;;;;19.63;17.93;;;29.40;29.20;;;;;;5992910;23;20472;-80
2022/03/24 11:26:08;;;;;;;18.50;17.10;;;29.30;29.10;;;;;;5997673;23;20448;-80
2022/03/24 11:28:36;;;;;;;18.73;17.13;;;29.30;28.60;;;;;;5996642;23;20528;-80
2022/03/24 11:31:08;;;;;;;19.57;18.00;;;29.20;29.00;;;;;;5997909;23;20516;-80
2022/03/24 11:33:40;;;;;;;17.87;16.47;;;29.30;28.90;;;;;;5997598;23;20826;-80
2022/03/24 11:36:08;;;;;;;19.60;18.03;;;29.10;28.50;;;;;;5995963;23;20456;-80
2022/03/24 11:38:38;;;;;;;18.77;17.27;;;29.10;29.20;;;;;;5991450;23;20840;-80
2022/03/24 11:41:07;;;;;;;17.67;16.37;;;29.10;28.40;;;;;;5999737;23;20948;-80
2022/03/24 11:43:40;;;;;;;18.57;17.17;;;29.40;28.40;;;;;;5991857;23;20472;-80
2022/03/24 11:46:11;;;;;;;17.07;15.80;;;29.70;28.00;;;;;;6000086;23;20455;-80
2022/03/24 11:48:39;;;;;;;18.17;16.67;;;29.70;28.00;;;;;;6007845;23;20808;-80
2022/03/24 11:51:17;;;;;;;18.07;16.57;;;29.90;27.80;;;;;;6006939;23;20441;-80
2022/03/24 11:53:45;;;;;;;18.07;16.67;;;29.90;28.10;;;;;;5991735;23;21001;-80
2022/03/24 11:56:21;;;;;;;18.37;16.97;;;29.70;28.00;;;;;;5985579;23;20464;-80
2022/03/24 11:59:19;;;;;;;18.17;16.70;;;29.60;27.70;;;;;;5998391;23;20499;-80
2022/03/24 12:01:46;;;;;;;16.90;15.30;;;29.50;27.70;;;;;;5989118;23;20480;-80
2022/03/24 12:04:14;;;;;;;17.37;16.00;;;29.30;27.40;;;;;;6003098;23;20447;-81
2022/03/24 12:06:55;;;;;;;15.57;14.27;;;29.20;27.90;;;;;;5991080;23;20472;-81
2022/03/24 12:09:28;;;;;;;17.77;16.37;;;29.60;27.60;;;;;;5995306;23;20604;-82
2022/03/24 12:12:09;;;;;;;18.63;17.13;;;29.80;27.60;;;;;;5999631;23;20445;-80
2022/03/24 12:14:45;;;;;;;18.23;16.73;;;29.90;27.80;;;;;;5998402;23;20473;-80
2022/03/24 12:17:21;;;;;;;16.90;15.60;;;30.10;28.00;;;;;;5996745;23;20948;-80
2022/03/24 12:19:50;;;;;;;19.00;17.27;;;30.30;28.20;;;;;;5996486;23;20957;-80
2022/03/24 12:22:37;;;;;;;17.87;16.47;;;30.20;28.10;;;;;;5996804;23;20448;-79
2022/03/24 12:25:30;;;;;;;15.90;14.70;;;30.20;28.00;;;;;;5985560;23;20790;-78
2022/03/24 12:28:09;;;;;;;15.77;14.57;;;30.50;29.50;;;;;;5995231;23;20445;-78
2022/03/24 12:30:47;;;;;;;16.43;15.20;;;30.90;28.30;;;;;;5998073;23;20445;-78
2022/03/24 12:33:16;;;;;;;15.53;14.23;;;30.30;27.00;;;;;;5996292;23;20459;-78
2022/03/24 12:35:48;;;;;;;15.80;14.60;;;29.60;27.60;;;;;;6001649;23;20528;-79
2022/03/24 12:38:30;;;;;;;15.63;14.23;;;29.00;27.80;;;;;;5987433;23;20441;-82
2022/03/24 12:41:32;;;;;;;15.93;14.63;;;28.70;28.50;;;;;;6020129;23;20421;-80
2022/03/24 12:44:07;;;;;;;15.13;13.93;;;28.60;28.10;;;;;;5999496;23;20916;-80